Time;durP1;ratioP1;P1;durP2;ratioP2;P2;SDS_P1;SDS_P2;PMS_P1;PMS_P2;Temp;Humidity;BMP_temperature;BMP_pressure;BME280_temperature;BME280_humidity;BME280_pressure;Samples;Min_cycle;Max_cycle;Signal;HPM_P1;HPM_P2
2021/08/27 00:00:06;;;;;;;1.77;1.20;;;14.40;99.90;;;;;;4987416;28;20027;-72
2021/08/27 00:02:31;;;;;;;1.40;1.13;;;14.40;99.90;;;;;;4990366;28;20029;-72
2021/08/27 00:04:57;;;;;;;4.97;1.60;;;14.40;99.90;;;;;;4990235;28;20035;-73
2021/08/27 00:07:22;;;;;;;1.70;1.30;;;14.40;99.90;;;;;;4986912;28;20038;-73
2021/08/27 00:09:47;;;;;;;1.73;1.30;;;14.40;99.90;;;;;;4993262;28;20109;-73
2021/08/27 00:12:13;;;;;;;4.72;1.30;;;14.40;99.90;;;;;;4988317;28;20035;-72
2021/08/27 00:14:38;;;;;;;5.65;1.40;;;14.40;99.90;;;;;;4992046;28;20117;-72
2021/08/27 00:17:04;;;;;;;2.70;1.40;;;14.40;99.90;;;;;;4992200;28;20034;-73
2021/08/27 00:19:29;;;;;;;2.53;1.30;;;14.40;99.90;;;;;;4990894;28;20027;-73
2021/08/27 00:21:55;;;;;;;1.52;1.20;;;14.30;99.90;;;;;;4989197;28;20026;-73
2021/08/27 00:24:20;;;;;;;1.23;1.13;;;14.30;99.90;;;;;;4985538;28;20018;-73
2021/08/27 00:26:46;;;;;;;3.90;1.40;;;14.30;99.90;;;;;;5003615;28;20045;-73
2021/08/27 00:29:11;;;;;;;2.90;1.20;;;14.30;99.90;;;;;;4987005;28;20034;-73
2021/08/27 00:31:37;;;;;;;1.25;1.10;;;14.30;99.90;;;;;;4989941;28;20042;-72
2021/08/27 00:34:02;;;;;;;1.83;1.33;;;14.30;99.90;;;;;;4990101;28;20023;-73
2021/08/27 00:36:28;;;;;;;5.40;1.42;;;14.30;99.90;;;;;;4989058;28;20077;-72
2021/08/27 00:38:53;;;;;;;1.95;1.33;;;14.30;99.90;;;;;;4990533;28;20026;-72
2021/08/27 00:41:20;;;;;;;1.63;1.30;;;14.30;99.90;;;;;;4987061;28;20023;-73
2021/08/27 00:43:45;;;;;;;4.70;1.65;;;14.30;99.90;;;;;;4998747;28;20097;-73
2021/08/27 00:46:11;;;;;;;1.15;1.05;;;14.30;99.90;;;;;;4989699;28;20505;-73
2021/08/27 00:48:37;;;;;;;1.95;1.33;;;14.30;99.90;;;;;;4992797;28;20033;-73
2021/08/27 00:51:04;;;;;;;1.95;1.30;;;14.30;99.90;;;;;;4992901;28;20041;-72
2021/08/27 00:53:33;;;;;;;1.48;1.30;;;14.30;99.90;;;;;;4982000;28;20513;-72
2021/08/27 00:55:59;;;;;;;1.42;1.25;;;14.20;99.90;;;;;;4990554;28;20061;-73
2021/08/27 00:58:24;;;;;;;2.13;1.20;;;14.20;99.90;;;;;;4992278;28;20026;-73
2021/08/27 01:00:50;;;;;;;1.20;1.10;;;14.20;99.90;;;;;;4991855;28;20507;-73
2021/08/27 01:03:17;;;;;;;4.50;1.30;;;14.20;99.90;;;;;;4992008;28;20133;-73
2021/08/27 01:05:51;;;;;;;1.60;1.10;;;14.20;99.90;;;;;;4985497;28;20026;-73
2021/08/27 01:08:28;;;;;;;1.25;1.10;;;14.20;99.90;;;;;;4990019;28;20041;-72
2021/08/27 01:11:11;;;;;;;1.60;1.48;;;14.20;99.90;;;;;;4988911;28;20031;-72
2021/08/27 01:13:59;;;;;;;7.55;1.30;;;14.20;99.90;;;;;;4988200;28;20035;-73
2021/08/27 01:16:31;;;;;;;2.25;1.35;;;14.20;99.90;;;;;;4982011;28;20393;-73
2021/08/27 01:19:05;;;;;;;3.58;1.65;;;14.20;99.90;;;;;;4996459;28;20026;-72
2021/08/27 01:22:11;;;;;;;4.43;1.95;;;14.20;99.90;;;;;;4990159;28;20037;-73
2021/08/27 01:24:37;;;;;;;2.75;1.73;;;14.20;99.90;;;;;;4989809;28;20034;-73
2021/08/27 01:27:05;;;;;;;1.92;1.40;;;14.30;99.90;;;;;;4991805;28;20192;-72
2021/08/27 01:29:44;;;;;;;2.13;1.48;;;14.20;99.90;;;;;;4988441;28;20088;-73
2021/08/27 01:32:16;;;;;;;1.27;1.17;;;14.30;99.90;;;;;;4988225;28;20034;-73
2021/08/27 01:34:44;;;;;;;1.42;1.30;;;14.20;99.90;;;;;;4991622;28;20169;-72
2021/08/27 01:37:20;;;;;;;1.25;1.10;;;14.20;99.90;;;;;;4990945;28;20889;-73
2021/08/27 01:39:49;;;;;;;1.63;1.20;;;14.20;99.90;;;;;;4992526;28;20026;-72
2021/08/27 01:42:18;;;;;;;3.70;1.08;;;14.30;99.90;;;;;;4985230;28;20039;-72
2021/08/27 01:44:46;;;;;;;1.00;0.90;;;14.20;99.90;;;;;;4985451;28;20154;-73
2021/08/27 01:47:15;;;;;;;2.80;1.50;;;14.20;99.90;;;;;;4990939;28;20031;-72
2021/08/27 01:49:41;;;;;;;4.43;1.60;;;14.20;99.90;;;;;;4992635;28;20038;-72
2021/08/27 01:52:09;;;;;;;2.63;1.92;;;14.20;99.90;;;;;;4992525;28;20387;-72
2021/08/27 01:57:10;;;;;;;6.68;2.53;;;14.10;99.90;;;;;;6065969;23;20013;-75
2021/08/27 01:59:38;;;;;;;3.72;2.63;;;14.20;99.90;;;;;;4974045;28;20039;-74
2021/08/27 02:02:10;;;;;;;2.65;1.90;;;14.20;99.90;;;;;;4984137;28;20037;-74
2021/08/27 02:04:38;;;;;;;7.32;1.48;;;14.20;99.90;;;;;;4988527;28;20396;-73
2021/08/27 02:07:05;;;;;;;1.92;1.35;;;14.20;99.90;;;;;;4982114;28;20045;-74
2021/08/27 02:09:32;;;;;;;3.72;2.15;;;14.20;99.90;;;;;;4988263;28;20072;-75
2021/08/27 02:11:58;;;;;;;3.10;1.45;;;14.20;99.90;;;;;;4987778;28;20022;-73
2021/08/27 02:14:24;;;;;;;4.85;1.50;;;14.20;99.90;;;;;;4988750;28;20377;-73
2021/08/27 02:16:49;;;;;;;1.70;1.60;;;14.20;99.90;;;;;;4985492;28;20038;-73
2021/08/27 02:19:15;;;;;;;1.98;1.58;;;14.20;99.90;;;;;;4987365;28;20101;-74
2021/08/27 02:21:47;;;;;;;2.67;1.88;;;14.30;99.90;;;;;;4987538;28;20034;-74
2021/08/27 02:24:20;;;;;;;3.17;2.30;;;14.20;99.90;;;;;;4980020;28;20062;-74
2021/08/27 02:26:46;;;;;;;4.88;2.38;;;14.20;99.90;;;;;;4986308;28;20448;-73
2021/08/27 02:29:14;;;;;;;2.95;2.17;;;14.20;99.90;;;;;;4988901;28;20034;-74
2021/08/27 02:31:44;;;;;;;3.03;1.95;;;14.20;99.90;;;;;;4986505;28;20389;-73
2021/08/27 02:34:12;;;;;;;6.50;2.03;;;14.20;99.90;;;;;;4988779;28;20062;-74
2021/08/27 02:36:39;;;;;;;4.53;2.35;;;14.20;99.90;;;;;;4987250;28;20044;-73
2021/08/27 02:39:05;;;;;;;2.97;2.35;;;14.20;99.90;;;;;;4987624;28;20035;-73
2021/08/27 02:41:31;;;;;;;2.65;2.00;;;14.20;99.90;;;;;;4985602;28;20027;-74
2021/08/27 02:43:56;;;;;;;3.55;1.92;;;14.30;99.90;;;;;;4979782;28;20041;-74
2021/08/27 02:46:21;;;;;;;2.08;1.88;;;14.30;99.90;;;;;;4986563;28;20424;-72
2021/08/27 02:48:47;;;;;;;3.28;1.77;;;14.30;99.90;;;;;;4987355;28;20027;-73
2021/08/27 02:51:15;;;;;;;2.05;1.85;;;14.30;99.90;;;;;;4985993;28;20026;-73
2021/08/27 02:53:45;;;;;;;2.83;1.85;;;14.20;99.90;;;;;;4987195;28;20101;-73
2021/08/27 02:56:25;;;;;;;3.42;2.05;;;14.30;99.90;;;;;;4986725;28;20037;-73
2021/08/27 02:58:53;;;;;;;2.65;1.83;;;14.20;99.90;;;;;;4987889;28;20728;-73
2021/08/27 03:01:36;;;;;;;1.83;1.38;;;14.20;99.90;;;;;;4987016;28;20050;-73
2021/08/27 03:04:08;;;;;;;1.38;0.98;;;14.30;99.90;;;;;;4983461;28;20360;-74
2021/08/27 03:06:48;;;;;;;1.33;1.10;;;14.30;99.90;;;;;;4989772;28;20569;-73
2021/08/27 03:09:17;;;;;;;1.23;0.87;;;14.30;99.90;;;;;;4987216;28;20030;-74
2021/08/27 03:11:51;;;;;;;0.80;0.80;;;14.30;99.90;;;;;;4987049;28;20496;-73
2021/08/27 03:14:29;;;;;;;0.80;0.80;;;14.30;99.90;;;;;;4981109;28;20031;-74
2021/08/27 03:16:57;;;;;;;0.80;0.80;;;14.30;99.90;;;;;;4987133;28;20030;-73
2021/08/27 03:19:27;;;;;;;1.15;1.00;;;14.30;99.90;;;;;;4984558;28;20037;-73
2021/08/27 03:22:04;;;;;;;0.82;0.82;;;14.30;99.90;;;;;;4986342;28;20027;-74
2021/08/27 03:24:49;;;;;;;0.77;0.77;;;14.30;99.90;;;;;;4986390;28;20054;-74
2021/08/27 03:27:19;;;;;;;1.70;1.20;;;14.40;99.90;;;;;;4984778;28;20023;-73
2021/08/27 03:29:50;;;;;;;1.95;1.20;;;14.40;99.90;;;;;;4983287;28;20385;-73
2021/08/27 03:32:15;;;;;;;1.30;1.20;;;14.40;99.90;;;;;;4986195;28;20034;-73
2021/08/27 03:34:44;;;;;;;1.17;0.70;;;14.40;99.90;;;;;;4987097;28;20040;-74
2021/08/27 03:37:10;;;;;;;1.00;0.90;;;14.40;99.90;;;;;;4987487;28;20031;-73
2021/08/27 03:39:36;;;;;;;1.30;0.80;;;14.40;99.90;;;;;;4987694;28;20034;-74
2021/08/27 03:42:03;;;;;;;0.73;0.73;;;14.30;99.90;;;;;;4989935;28;20451;-73
2021/08/27 03:44:31;;;;;;;1.38;0.80;;;14.40;99.90;;;;;;4994365;28;20214;-73
2021/08/27 03:46:57;;;;;;;0.70;0.70;;;14.40;99.90;;;;;;4990796;28;20109;-73
2021/08/27 03:49:23;;;;;;;0.50;0.50;;;14.40;99.90;;;;;;4992280;28;20563;-73
2021/08/27 03:51:49;;;;;;;0.75;0.70;;;14.30;99.90;;;;;;4989055;28;20113;-73
2021/08/27 03:54:17;;;;;;;0.98;0.70;;;14.30;99.90;;;;;;4994300;28;20030;-73
2021/08/27 03:56:43;;;;;;;0.93;0.70;;;14.30;99.90;;;;;;4988748;28;20026;-74
2021/08/27 03:59:10;;;;;;;0.60;0.60;;;14.30;99.90;;;;;;4989379;28;20497;-73
2021/08/27 04:01:36;;;;;;;1.65;0.77;;;14.30;99.90;;;;;;4992050;28;20365;-74
2021/08/27 04:04:01;;;;;;;0.60;0.60;;;14.30;99.90;;;;;;4990051;28;20029;-73
2021/08/27 04:06:27;;;;;;;1.10;0.70;;;14.30;99.90;;;;;;4993545;28;20587;-74
2021/08/27 04:08:52;;;;;;;2.53;0.90;;;14.30;99.90;;;;;;4989960;28;20119;-74
2021/08/27 04:11:18;;;;;;;1.13;0.90;;;14.40;99.90;;;;;;4993589;28;20038;-73
2021/08/27 04:13:44;;;;;;;0.63;0.60;;;14.30;99.90;;;;;;4993173;28;20027;-74
2021/08/27 04:16:10;;;;;;;0.82;0.70;;;14.30;99.90;;;;;;4993078;28;20035;-73
2021/08/27 04:18:36;;;;;;;2.53;0.90;;;14.40;99.90;;;;;;4992302;28;20088;-73
2021/08/27 04:21:02;;;;;;;0.60;0.60;;;14.40;99.90;;;;;;4991745;28;20072;-73
2021/08/27 04:23:28;;;;;;;1.58;0.80;;;14.40;99.90;;;;;;4994342;28;20564;-73
2021/08/27 04:25:54;;;;;;;1.00;1.00;;;14.40;99.90;;;;;;4984860;28;20034;-73
2021/08/27 04:28:19;;;;;;;1.15;0.90;;;14.40;99.90;;;;;;4994556;28;20076;-73
2021/08/27 04:30:45;;;;;;;0.95;0.82;;;14.40;99.90;;;;;;4992770;28;20142;-72
2021/08/27 04:33:10;;;;;;;1.23;1.00;;;14.50;99.90;;;;;;4987754;28;20030;-73
2021/08/27 04:35:36;;;;;;;0.93;0.93;;;14.50;99.90;;;;;;4992241;28;20525;-73
2021/08/27 04:38:02;;;;;;;1.23;0.90;;;14.50;99.90;;;;;;4990825;28;20488;-73
2021/08/27 04:40:27;;;;;;;1.52;1.05;;;14.50;99.90;;;;;;4994939;28;20029;-73
2021/08/27 04:42:53;;;;;;;0.90;0.90;;;14.50;99.90;;;;;;4992088;28;20030;-73
2021/08/27 04:45:19;;;;;;;1.20;1.10;;;14.50;99.90;;;;;;4993634;28;20038;-73
2021/08/27 04:47:44;;;;;;;1.15;1.00;;;14.60;99.90;;;;;;4991325;28;20061;-73
2021/08/27 04:50:11;;;;;;;1.40;1.30;;;14.50;99.90;;;;;;4988853;28;20624;-73
2021/08/27 04:52:37;;;;;;;2.47;1.20;;;14.60;99.90;;;;;;4987080;28;20027;-73
2021/08/27 04:55:03;;;;;;;1.08;0.98;;;14.60;99.90;;;;;;4988160;28;20031;-73
2021/08/27 04:57:30;;;;;;;7.00;1.45;;;14.60;99.90;;;;;;4986825;28;20476;-73
2021/08/27 04:59:56;;;;;;;1.95;1.40;;;14.60;99.90;;;;;;4989726;28;20240;-74
2021/08/27 05:02:21;;;;;;;3.30;1.20;;;14.60;99.90;;;;;;4985204;28;20029;-74
2021/08/27 05:04:47;;;;;;;1.35;1.10;;;14.60;99.90;;;;;;4990851;28;20487;-74
2021/08/27 05:07:12;;;;;;;1.25;1.00;;;14.60;99.90;;;;;;4991531;28;20531;-74
2021/08/27 05:09:38;;;;;;;1.25;1.10;;;14.60;99.90;;;;;;4986476;28;20035;-74
2021/08/27 05:12:04;;;;;;;1.85;1.10;;;14.60;99.90;;;;;;4986771;28;20018;-75
2021/08/27 05:14:29;;;;;;;8.88;1.58;;;14.70;99.90;;;;;;4980655;28;20031;-74
2021/08/27 05:16:55;;;;;;;3.00;1.30;;;14.70;99.90;;;;;;4983623;28;20062;-74
2021/08/27 05:19:20;;;;;;;2.80;1.50;;;14.70;99.90;;;;;;4987646;28;20026;-74
2021/08/27 05:21:47;;;;;;;1.90;1.35;;;14.70;99.90;;;;;;4990660;28;20029;-70
2021/08/27 05:24:12;;;;;;;2.05;1.45;;;14.70;99.90;;;;;;4987619;28;20030;-70
2021/08/27 05:26:38;;;;;;;2.17;1.98;;;14.70;99.90;;;;;;4986503;28;20053;-84
2021/08/27 05:29:04;;;;;;;2.10;1.58;;;14.80;99.90;;;;;;4982087;28;20022;-72
2021/08/27 05:31:31;;;;;;;3.53;1.83;;;14.80;99.90;;;;;;4979495;28;20497;-71
2021/08/27 05:33:59;;;;;;;1.85;1.75;;;14.80;99.90;;;;;;4982268;28;20081;-73
2021/08/27 05:36:25;;;;;;;1.85;1.67;;;14.80;99.90;;;;;;4989140;28;20125;-71
2021/08/27 05:38:51;;;;;;;1.60;1.50;;;14.80;99.90;;;;;;4988125;28;20105;-73
2021/08/27 05:41:16;;;;;;;1.95;1.60;;;14.80;99.90;;;;;;4986486;28;20080;-72
2021/08/27 05:43:42;;;;;;;2.20;1.70;;;14.80;99.90;;;;;;4984327;28;20049;-72
2021/08/27 05:46:07;;;;;;;2.47;1.40;;;14.90;99.90;;;;;;4987592;28;20030;-71
2021/08/27 05:48:33;;;;;;;1.20;1.10;;;15.00;99.90;;;;;;4986551;28;20476;-72
2021/08/27 05:50:58;;;;;;;1.70;1.13;;;15.00;99.90;;;;;;4989287;28;20037;-72
2021/08/27 05:53:24;;;;;;;1.10;1.00;;;15.00;99.90;;;;;;4988903;28;20523;-72
2021/08/27 05:55:49;;;;;;;2.25;1.20;;;15.20;99.90;;;;;;4987346;28;20057;-75
2021/08/27 05:58:15;;;;;;;4.65;1.08;;;15.40;99.90;;;;;;4988947;28;20034;-81
2021/08/27 06:00:41;;;;;;;1.02;0.93;;;15.40;99.90;;;;;;4986755;28;20052;-73
2021/08/27 06:03:06;;;;;;;0.88;0.88;;;15.50;99.90;;;;;;4986824;28;20034;-73
2021/08/27 06:05:32;;;;;;;1.67;1.20;;;15.50;99.90;;;;;;4988306;28;20045;-73
2021/08/27 06:07:58;;;;;;;1.42;0.80;;;15.50;99.90;;;;;;4989110;28;20034;-74
2021/08/27 06:10:23;;;;;;;3.10;0.93;;;15.40;99.90;;;;;;4988643;28;20117;-73
2021/08/27 06:12:49;;;;;;;1.73;1.05;;;15.30;99.90;;;;;;4988067;28;20054;-73
2021/08/27 06:15:15;;;;;;;1.70;1.05;;;15.20;99.90;;;;;;4987719;28;20026;-73
2021/08/27 06:17:40;;;;;;;1.63;1.02;;;15.30;99.90;;;;;;4986479;28;20106;-73
2021/08/27 06:20:07;;;;;;;1.20;1.10;;;15.30;99.90;;;;;;4984123;28;20113;-73
2021/08/27 06:22:32;;;;;;;1.20;1.10;;;15.30;99.90;;;;;;4989167;28;20022;-73
2021/08/27 06:24:58;;;;;;;1.42;1.33;;;15.30;99.90;;;;;;4987722;28;20029;-74
2021/08/27 06:27:24;;;;;;;1.42;0.90;;;15.30;99.90;;;;;;4980732;28;21244;-74
2021/08/27 06:29:49;;;;;;;1.40;1.30;;;15.30;99.90;;;;;;4987663;28;20029;-74
2021/08/27 06:32:15;;;;;;;3.63;1.10;;;15.30;99.90;;;;;;4986544;28;20072;-73
2021/08/27 06:34:41;;;;;;;1.75;1.23;;;15.20;99.90;;;;;;4983562;28;20081;-74
2021/08/27 06:37:06;;;;;;;1.10;1.00;;;15.20;99.90;;;;;;4988839;28;20026;-74
2021/08/27 06:39:32;;;;;;;0.80;0.80;;;15.20;99.90;;;;;;4981573;28;20033;-74
2021/08/27 06:41:57;;;;;;;1.00;0.90;;;15.20;99.90;;;;;;4983519;28;20053;-74
2021/08/27 06:44:23;;;;;;;1.50;1.00;;;15.20;99.90;;;;;;4987055;28;20062;-74
2021/08/27 06:46:48;;;;;;;1.35;1.02;;;15.20;99.90;;;;;;4985212;28;20054;-72
2021/08/27 06:49:14;;;;;;;1.10;1.00;;;15.20;99.90;;;;;;4987668;28;20588;-76
2021/08/27 06:51:41;;;;;;;2.20;1.00;;;15.20;99.90;;;;;;4979426;28;20493;-72
2021/08/27 06:54:07;;;;;;;1.08;0.95;;;15.20;99.90;;;;;;4982156;28;20078;-73
2021/08/27 06:56:32;;;;;;;2.15;1.00;;;15.20;99.90;;;;;;4983213;28;20362;-73
2021/08/27 06:58:58;;;;;;;0.98;0.90;;;15.20;99.90;;;;;;4985570;28;20058;-73
2021/08/27 07:01:24;;;;;;;0.82;0.73;;;15.20;99.90;;;;;;4989073;28;20034;-73
2021/08/27 07:03:50;;;;;;;2.45;0.65;;;15.20;99.90;;;;;;4988712;28;20110;-73
2021/08/27 07:06:16;;;;;;;0.80;0.80;;;15.30;99.90;;;;;;4987872;28;20101;-74
2021/08/27 07:08:41;;;;;;;1.23;0.80;;;15.40;99.90;;;;;;4984135;28;20224;-74
2021/08/27 07:11:07;;;;;;;0.73;0.73;;;15.40;99.90;;;;;;4988953;28;20053;-73
2021/08/27 07:13:32;;;;;;;0.75;0.75;;;15.40;99.90;;;;;;4985509;28;20030;-73
2021/08/27 07:15:58;;;;;;;2.45;0.90;;;15.40;99.90;;;;;;4982093;28;20037;-73
2021/08/27 07:18:25;;;;;;;0.70;0.68;;;15.50;99.90;;;;;;4979362;28;20032;-74
2021/08/27 07:20:54;;;;;;;2.40;0.80;;;15.50;99.90;;;;;;4970515;28;20038;-73
2021/08/27 07:23:19;;;;;;;3.20;0.95;;;15.50;99.90;;;;;;4983331;28;20388;-73
2021/08/27 07:25:46;;;;;;;0.80;0.80;;;15.50;99.90;;;;;;4977253;28;20031;-73
2021/08/27 07:28:12;;;;;;;0.70;0.70;;;15.50;99.90;;;;;;4987013;28;20244;-74
2021/08/27 07:30:39;;;;;;;0.75;0.75;;;15.50;99.90;;;;;;4984443;28;20026;-73
2021/08/27 07:33:04;;;;;;;1.00;0.90;;;15.50;99.90;;;;;;4988299;28;20042;-73
2021/08/27 07:35:30;;;;;;;0.90;0.90;;;15.60;99.90;;;;;;4973315;28;20122;-73
2021/08/27 07:37:55;;;;;;;0.95;0.82;;;15.60;99.90;;;;;;4974608;28;20085;-73
2021/08/27 07:40:21;;;;;;;3.92;0.95;;;15.70;99.90;;;;;;4984189;28;20022;-74
2021/08/27 07:42:46;;;;;;;1.35;0.77;;;15.70;99.90;;;;;;4988746;28;20477;-73
2021/08/27 07:45:14;;;;;;;1.00;0.90;;;15.70;99.90;;;;;;4989246;28;20023;-73
2021/08/27 07:47:41;;;;;;;1.48;0.80;;;15.80;99.90;;;;;;4982487;28;20031;-73
2021/08/27 07:50:07;;;;;;;0.90;0.73;;;15.80;99.90;;;;;;4972587;28;20027;-73
2021/08/27 07:52:32;;;;;;;0.65;0.65;;;15.90;99.90;;;;;;4988137;28;20134;-73
2021/08/27 07:54:58;;;;;;;0.60;0.52;;;15.90;99.90;;;;;;4987658;28;20075;-73
2021/08/27 07:57:23;;;;;;;0.60;0.60;;;15.80;99.90;;;;;;4987026;28;20022;-73
2021/08/27 07:59:49;;;;;;;0.40;0.40;;;15.90;99.90;;;;;;4987657;28;20034;-73
2021/08/27 08:02:14;;;;;;;0.40;0.40;;;15.90;99.90;;;;;;4982272;28;20023;-73
2021/08/27 08:04:41;;;;;;;0.60;0.60;;;16.00;99.90;;;;;;4971524;28;20378;-74
2021/08/27 08:07:07;;;;;;;0.25;0.25;;;16.10;99.90;;;;;;4988844;28;20030;-74
2021/08/27 08:09:32;;;;;;;0.43;0.43;;;16.20;99.90;;;;;;4987964;28;20034;-73
2021/08/27 08:11:58;;;;;;;0.40;0.40;;;16.30;99.90;;;;;;4979456;28;20626;-73
2021/08/27 08:14:24;;;;;;;0.38;0.38;;;16.40;99.90;;;;;;4971630;28;20409;-73
2021/08/27 08:16:49;;;;;;;0.30;0.30;;;16.60;99.90;;;;;;4985111;28;20388;-73
2021/08/27 08:19:15;;;;;;;0.38;0.38;;;16.70;99.90;;;;;;4988078;28;20034;-73
2021/08/27 08:21:40;;;;;;;0.68;0.68;;;16.90;99.90;;;;;;4982796;28;20031;-73
2021/08/27 08:24:06;;;;;;;0.80;0.40;;;16.90;99.90;;;;;;4988529;28;20030;-74
2021/08/27 08:26:31;;;;;;;0.40;0.40;;;16.90;99.90;;;;;;4987973;28;20026;-73
2021/08/27 08:28:57;;;;;;;3.45;0.30;;;16.80;99.90;;;;;;4988198;28;20053;-73
2021/08/27 08:31:22;;;;;;;0.25;0.25;;;16.80;99.90;;;;;;4990900;28;20030;-74
2021/08/27 08:33:51;;;;;;;0.40;0.40;;;16.70;99.90;;;;;;4990395;28;20485;-73
2021/08/27 08:36:17;;;;;;;0.30;0.30;;;16.80;99.90;;;;;;4991811;28;20026;-73
2021/08/27 08:38:43;;;;;;;1.05;0.30;;;16.90;99.90;;;;;;4991682;28;20393;-73
2021/08/27 08:41:09;;;;;;;0.40;0.40;;;17.00;99.90;;;;;;4987850;28;20138;-73
2021/08/27 08:43:35;;;;;;;0.40;0.40;;;17.00;99.90;;;;;;4992393;28;20532;-73
2021/08/27 08:46:01;;;;;;;0.50;0.50;;;17.00;99.90;;;;;;4990918;28;20080;-73
2021/08/27 08:48:28;;;;;;;0.40;0.40;;;17.00;99.90;;;;;;4991395;28;20573;-74
2021/08/27 08:50:54;;;;;;;0.45;0.35;;;17.00;99.90;;;;;;4991328;28;20438;-74
2021/08/27 08:53:22;;;;;;;0.52;0.40;;;16.90;99.90;;;;;;4992068;28;20022;-73
2021/08/27 08:55:48;;;;;;;0.20;0.20;;;16.90;99.90;;;;;;4991094;28;20030;-73
2021/08/27 08:58:14;;;;;;;0.50;0.50;;;16.80;99.90;;;;;;4987672;28;20046;-73
2021/08/27 09:00:40;;;;;;;0.22;0.22;;;16.90;99.90;;;;;;4989867;28;20130;-73
2021/08/27 09:03:05;;;;;;;0.32;0.32;;;16.90;99.90;;;;;;4988224;28;20026;-73
2021/08/27 09:05:31;;;;;;;0.38;0.38;;;17.00;99.90;;;;;;4991576;28;20030;-74
2021/08/27 09:07:57;;;;;;;1.23;0.20;;;17.10;99.90;;;;;;4989843;28;20358;-73
2021/08/27 09:10:23;;;;;;;0.20;0.20;;;17.30;99.90;;;;;;4991512;28;20038;-73
2021/08/27 09:12:50;;;;;;;0.30;0.30;;;17.50;99.90;;;;;;4991336;28;20027;-73
2021/08/27 09:15:20;;;;;;;0.30;0.30;;;17.60;99.90;;;;;;4980591;28;20030;-73
2021/08/27 09:17:51;;;;;;;2.37;0.40;;;17.60;99.90;;;;;;4976320;28;20389;-73
2021/08/27 09:20:19;;;;;;;0.20;0.20;;;17.60;99.90;;;;;;4989755;28;20169;-74
2021/08/27 09:22:49;;;;;;;0.40;0.40;;;17.60;99.90;;;;;;4992770;28;20058;-74
2021/08/27 09:25:17;;;;;;;0.40;0.40;;;17.80;99.90;;;;;;4982127;28;20401;-74
2021/08/27 09:28:08;;;;;;;0.40;0.25;;;17.90;99.90;;;;;;4983709;28;20250;-74
2021/08/27 09:30:50;;;;;;;0.40;0.40;;;18.10;99.90;;;;;;4984131;28;20027;-74
2021/08/27 09:33:22;;;;;;;0.30;0.30;;;18.10;99.90;;;;;;4982634;28;20038;-74
2021/08/27 09:36:06;;;;;;;0.38;0.35;;;18.10;99.90;;;;;;4971930;28;20058;-74
2021/08/27 09:38:39;;;;;;;0.40;0.40;;;18.00;99.90;;;;;;4980901;28;20018;-74
2021/08/27 09:41:13;;;;;;;0.30;0.30;;;18.00;99.90;;;;;;4982570;28;20030;-73
2021/08/27 09:43:46;;;;;;;0.32;0.32;;;17.90;99.90;;;;;;4990395;28;20065;-73
2021/08/27 09:46:31;;;;;;;0.40;0.40;;;17.80;99.90;;;;;;4990197;28;20143;-74
2021/08/27 09:48:57;;;;;;;0.40;0.40;;;17.80;99.90;;;;;;4986249;28;20022;-75
2021/08/27 09:51:42;;;;;;;0.60;0.60;;;17.80;99.90;;;;;;4988945;28;20038;-74
2021/08/27 09:54:09;;;;;;;0.50;0.40;;;17.90;99.90;;;;;;4990496;28;20038;-75
2021/08/27 09:56:45;;;;;;;0.20;0.20;;;17.80;99.90;;;;;;4979756;28;20061;-73
2021/08/27 09:59:12;;;;;;;0.40;0.40;;;17.70;99.90;;;;;;4983961;28;20048;-74
2021/08/27 10:01:48;;;;;;;0.20;0.20;;;17.70;99.90;;;;;;4982649;28;20031;-75
2021/08/27 10:04:14;;;;;;;0.35;0.35;;;17.70;99.90;;;;;;4980752;28;20090;-76
2021/08/27 10:06:40;;;;;;;0.32;0.32;;;17.60;99.90;;;;;;4986497;28;20116;-73
2021/08/27 10:09:05;;;;;;;0.43;0.40;;;17.60;99.90;;;;;;4989121;28;20073;-74
2021/08/27 10:11:32;;;;;;;0.55;0.40;;;17.60;99.90;;;;;;4989386;28;20029;-74
2021/08/27 10:13:58;;;;;;;0.52;0.52;;;17.80;99.90;;;;;;4987854;28;20155;-74
2021/08/27 10:16:24;;;;;;;0.63;0.47;;;17.90;99.90;;;;;;4981762;28;20035;-73
2021/08/27 10:18:50;;;;;;;0.57;0.45;;;18.20;99.90;;;;;;4981699;28;20045;-73
2021/08/27 10:21:15;;;;;;;0.50;0.50;;;18.40;99.90;;;;;;4987757;28;20038;-73
2021/08/27 10:23:43;;;;;;;1.08;0.80;;;18.60;99.60;;;;;;4987481;28;20033;-73
2021/08/27 10:26:19;;;;;;;0.47;0.47;;;18.70;96.60;;;;;;4987298;28;20480;-73
2021/08/27 10:28:45;;;;;;;0.38;0.38;;;18.70;96.60;;;;;;4985229;28;20038;-74
2021/08/27 10:31:11;;;;;;;0.70;0.50;;;18.70;96.40;;;;;;4985845;28;20036;-73
2021/08/27 10:33:40;;;;;;;2.47;0.60;;;18.60;97.30;;;;;;4980193;28;20023;-73
2021/08/27 10:36:31;;;;;;;1.27;0.57;;;18.70;99.30;;;;;;4986861;28;20042;-73
2021/08/27 10:38:59;;;;;;;0.65;0.63;;;18.90;98.10;;;;;;4985082;28;20019;-73
2021/08/27 10:41:32;;;;;;;0.63;0.50;;;18.90;97.90;;;;;;4981887;28;20026;-74
2021/08/27 10:44:00;;;;;;;0.40;0.40;;;19.00;98.00;;;;;;4985045;28;20026;-73
2021/08/27 10:46:44;;;;;;;2.40;0.47;;;19.00;97.50;;;;;;4985578;28;20031;-74
2021/08/27 10:49:11;;;;;;;0.50;0.50;;;18.90;97.90;;;;;;4989570;28;20037;-74
2021/08/27 10:51:39;;;;;;;0.70;0.70;;;18.80;98.50;;;;;;4986528;28;20105;-74
2021/08/27 10:54:06;;;;;;;0.82;0.57;;;18.70;97.80;;;;;;4981081;28;20076;-74
2021/08/27 10:56:50;;;;;;;0.63;0.63;;;18.70;96.90;;;;;;4983214;28;20062;-73
2021/08/27 10:59:17;;;;;;;1.02;0.65;;;18.70;98.20;;;;;;4989626;28;20052;-74
2021/08/27 11:02:00;;;;;;;1.10;1.00;;;18.80;98.70;;;;;;4987338;28;20084;-74
2021/08/27 11:04:27;;;;;;;0.80;0.80;;;18.80;97.90;;;;;;4988375;28;20421;-74
2021/08/27 11:07:05;;;;;;;0.93;0.90;;;18.80;97.30;;;;;;4987742;28;20030;-74
2021/08/27 11:09:32;;;;;;;0.98;0.98;;;18.90;97.90;;;;;;4987123;28;20435;-74
2021/08/27 11:12:15;;;;;;;1.13;1.02;;;19.10;96.30;;;;;;4986982;28;20389;-74
2021/08/27 11:15:20;;;;;;;1.10;1.00;;;19.30;95.90;;;;;;4975111;28;20117;-75
2021/08/27 11:18:16;;;;;;;0.95;0.90;;;19.50;96.40;;;;;;4985161;28;20404;-75
2021/08/27 11:20:42;;;;;;;1.30;0.90;;;19.90;96.10;;;;;;4983891;28;20405;-74
2021/08/27 11:23:08;;;;;;;1.02;0.77;;;20.00;95.60;;;;;;4988524;28;20023;-75
2021/08/27 11:25:34;;;;;;;0.90;0.90;;;20.00;96.60;;;;;;4988775;28;20030;-75
2021/08/27 11:28:14;;;;;;;0.95;0.93;;;19.90;94.90;;;;;;4987122;28;20036;-74
2021/08/27 11:31:09;;;;;;;1.50;1.05;;;19.90;96.90;;;;;;4984491;28;20504;-74
2021/08/27 11:33:40;;;;;;;3.83;1.10;;;19.90;96.70;;;;;;4982131;28;20050;-74
2021/08/27 11:36:14;;;;;;;;;;;20.00;97.50;;;;;;4989577;28;20033;-74
2021/08/27 11:38:41;;;;;;;0.90;0.90;;;19.90;96.20;;;;;;4991847;28;19959;-75
2021/08/27 11:41:07;;;;;;;0.90;0.80;;;20.00;95.20;;;;;;4986966;28;20042;-75
2021/08/27 11:43:35;;;;;;;1.08;0.98;;;20.20;94.80;;;;;;4983343;28;20031;-75
2021/08/27 11:46:02;;;;;;;1.42;0.95;;;20.60;94.60;;;;;;4986180;28;20366;-75
2021/08/27 11:48:32;;;;;;;0.70;0.70;;;21.00;92.80;;;;;;4983891;28;20088;-75
2021/08/27 11:51:34;;;;;;;0.50;0.50;;;21.20;91.40;;;;;;4986482;28;20030;-75
2021/08/27 11:54:15;;;;;;;0.65;0.65;;;21.40;90.70;;;;;;4982722;28;20038;-75
2021/08/27 11:56:41;;;;;;;;;;;22.50;88.80;;;;;;4979427;28;20030;-75
2021/08/27 11:59:06;;;;;;;3.85;0.60;;;23.50;82.60;;;;;;4983589;28;19924;-75
2021/08/27 12:01:32;;;;;;;0.50;0.50;;;24.70;78.30;;;;;;4976639;28;20476;-74
2021/08/27 12:03:57;;;;;;;1.17;0.55;;;25.50;71.90;;;;;;4984813;28;20040;-75
2021/08/27 12:06:27;;;;;;;0.43;0.43;;;26.20;69.00;;;;;;4991540;28;20046;-76
2021/08/27 12:08:52;;;;;;;0.40;0.40;;;26.90;63.70;;;;;;4991064;28;20077;-75
2021/08/27 12:11:33;;;;;;;1.30;0.60;;;27.50;62.50;;;;;;4992808;28;20023;-74
2021/08/27 12:14:00;;;;;;;0.47;0.47;;;27.00;63.90;;;;;;4986620;28;20037;-75
2021/08/27 12:16:26;;;;;;;3.28;0.80;;;25.80;67.20;;;;;;4990863;28;20039;-75
2021/08/27 12:18:52;;;;;;;1.50;0.65;;;24.10;71.00;;;;;;4991508;28;20485;-74
2021/08/27 12:21:26;;;;;;;0.77;0.60;;;23.00;76.90;;;;;;4991959;28;20026;-75
2021/08/27 12:24:08;;;;;;;0.77;0.77;;;22.10;85.00;;;;;;4981741;28;20039;-74
2021/08/27 12:26:35;;;;;;;0.80;0.80;;;21.30;89.90;;;;;;4984016;28;20563;-75
2021/08/27 12:29:01;;;;;;;1.08;0.65;;;20.70;90.70;;;;;;4985230;28;20401;-75
2021/08/27 12:31:37;;;;;;;0.57;0.57;;;20.30;94.30;;;;;;4992362;28;20033;-73
2021/08/27 12:34:06;;;;;;;1.02;0.50;;;20.00;92.80;;;;;;4992072;28;20031;-74
2021/08/27 12:36:40;;;;;;;0.40;0.40;;;20.00;93.30;;;;;;4984910;28;20202;-75
2021/08/27 12:39:07;;;;;;;1.27;0.70;;;20.00;93.00;;;;;;4991040;28;20022;-75
2021/08/27 12:41:36;;;;;;;1.75;0.40;;;19.90;93.60;;;;;;4982523;28;20030;-75
2021/08/27 12:44:10;;;;;;;0.30;0.30;;;19.80;93.30;;;;;;4986467;28;20030;-75
2021/08/27 12:46:36;;;;;;;0.32;0.32;;;19.70;94.10;;;;;;4992512;28;20034;-75
2021/08/27 12:49:16;;;;;;;0.47;0.47;;;20.10;93.10;;;;;;4987284;28;20031;-75
2021/08/27 12:51:44;;;;;;;0.30;0.30;;;20.40;93.40;;;;;;4988415;28;20034;-74
2021/08/27 12:54:10;;;;;;;0.30;0.30;;;21.00;94.50;;;;;;4991345;28;20030;-75
2021/08/27 12:56:36;;;;;;;0.30;0.30;;;22.30;92.40;;;;;;4992286;28;20093;-75